sensor_id;sensor_type;location;lat;lon;timestamp;temperature;humidity
2226;DHT22;1119;48.288;8.726;2022-11-15T00:00:49;9.40;99.90
2226;DHT22;1119;48.288;8.726;2022-11-15T00:03:35;9.40;99.90
2226;DHT22;1119;48.288;8.726;2022-11-15T00:06:21;9.40;99.90
2226;DHT22;1119;48.288;8.726;2022-11-15T00:09:07;9.30;99.90
2226;DHT22;1119;48.288;8.726;2022-11-15T00:11:53;9.30;99.90
2226;DHT22;1119;48.288;8.726;2022-11-15T00:14:40;9.30;99.90
2226;DHT22;1119;48.288;8.726;2022-11-15T00:17:25;9.20;99.90
2226;DHT22;1119;48.288;8.726;2022-11-15T00:20:12;9.20;99.90
2226;DHT22;1119;48.288;8.726;2022-11-15T00:22:57;9.10;99.90
2226;DHT22;1119;48.288;8.726;2022-11-15T00:25:43;9.00;99.90
2226;DHT22;1119;48.288;8.726;2022-11-15T00:28:29;9.00;99.90
2226;DHT22;1119;48.288;8.726;2022-11-15T00:31:17;9.00;99.90
2226;DHT22;1119;48.288;8.726;2022-11-15T00:34:02;9.00;99.90
2226;DHT22;1119;48.288;8.726;2022-11-15T00:36:48;9.00;99.90
2226;DHT22;1119;48.288;8.726;2022-11-15T00:39:34;9.00;99.90
2226;DHT22;1119;48.288;8.726;2022-11-15T00:42:20;9.00;99.90
2226;DHT22;1119;48.288;8.726;2022-11-15T00:45:07;9.00;99.90
2226;DHT22;1119;48.288;8.726;2022-11-15T00:47:55;9.00;99.90
2226;DHT22;1119;48.288;8.726;2022-11-15T00:50:41;9.00;99.90
2226;DHT22;1119;48.288;8.726;2022-11-15T00:53:27;9.10;99.90
2226;DHT22;1119;48.288;8.726;2022-11-15T00:56:13;9.10;99.90
2226;DHT22;1119;48.288;8.726;2022-11-15T00:58:59;9.10;99.90
2226;DHT22;1119;48.288;8.726;2022-11-15T01:01:45;9.10;99.90
2226;DHT22;1119;48.288;8.726;2022-11-15T01:04:32;9.10;99.90
2226;DHT22;1119;48.288;8.726;2022-11-15T01:07:18;9.10;99.90
2226;DHT22;1119;48.288;8.726;2022-11-15T01:10:05;9.10;99.90
2226;DHT22;1119;48.288;8.726;2022-11-15T01:12:51;9.10;99.90
2226;DHT22;1119;48.288;8.726;2022-11-15T01:15:39;9.10;99.90
2226;DHT22;1119;48.288;8.726;2022-11-15T01:18:25;9.20;99.90
2226;DHT22;1119;48.288;8.726;2022-11-15T01:21:14;9.20;99.90
2226;DHT22;1119;48.288;8.726;2022-11-15T01:24:01;9.20;99.90
2226;DHT22;1119;48.288;8.726;2022-11-15T01:26:47;9.20;99.90
2226;DHT22;1119;48.288;8.726;2022-11-15T01:29:33;9.20;99.90
2226;DHT22;1119;48.288;8.726;2022-11-15T01:32:19;9.20;99.90
2226;DHT22;1119;48.288;8.726;2022-11-15T01:35:05;9.20;99.90
2226;DHT22;1119;48.288;8.726;2022-11-15T01:37:53;9.20;99.90
2226;DHT22;1119;48.288;8.726;2022-11-15T01:40:39;9.20;99.90
2226;DHT22;1119;48.288;8.726;2022-11-15T01:43:26;9.20;99.90
2226;DHT22;1119;48.288;8.726;2022-11-15T01:46:23;9.20;99.90
2226;DHT22;1119;48.288;8.726;2022-11-15T01:49:13;9.20;99.90
2226;DHT22;1119;48.288;8.726;2022-11-15T01:52:02;9.20;99.90
2226;DHT22;1119;48.288;8.726;2022-11-15T01:54:54;9.20;99.90
2226;DHT22;1119;48.288;8.726;2022-11-15T01:57:43;9.20;99.90
2226;DHT22;1119;48.288;8.726;2022-11-15T02:00:32;9.10;99.90
2226;DHT22;1119;48.288;8.726;2022-11-15T02:03:18;9.00;99.90
2226;DHT22;1119;48.288;8.726;2022-11-15T02:06:05;8.90;99.90
2226;DHT22;1119;48.288;8.726;2022-11-15T02:08:52;8.90;99.90
2226;DHT22;1119;48.288;8.726;2022-11-15T02:11:39;8.90;99.90
2226;DHT22;1119;48.288;8.726;2022-11-15T02:14:26;8.80;99.90
2226;DHT22;1119;48.288;8.726;2022-11-15T02:17:25;8.90;99.90
2226;DHT22;1119;48.288;8.726;2022-11-15T02:20:42;8.90;99.90
2226;DHT22;1119;48.288;8.726;2022-11-15T02:23:54;8.90;99.90
2226;DHT22;1119;48.288;8.726;2022-11-15T02:30:41;9.00;99.90
2226;DHT22;1119;48.288;8.726;2022-11-15T02:33:35;9.10;99.90
2226;DHT22;1119;48.288;8.726;2022-11-15T02:36:34;9.10;99.90
2226;DHT22;1119;48.288;8.726;2022-11-15T02:39:28;9.10;99.90
2226;DHT22;1119;48.288;8.726;2022-11-15T02:42:21;9.20;99.90
2226;DHT22;1119;48.288;8.726;2022-11-15T02:45:30;9.20;99.90
2226;DHT22;1119;48.288;8.726;2022-11-15T02:48:39;9.20;99.90
2226;DHT22;1119;48.288;8.726;2022-11-15T02:51:27;9.20;99.90
2226;DHT22;1119;48.288;8.726;2022-11-15T02:54:15;9.20;99.90
2226;DHT22;1119;48.288;8.726;2022-11-15T02:57:10;9.20;99.90
2226;DHT22;1119;48.288;8.726;2022-11-15T03:00:05;9.30;99.90
2226;DHT22;1119;48.288;8.726;2022-11-15T03:03:02;9.30;99.90
2226;DHT22;1119;48.288;8.726;2022-11-15T03:06:16;9.30;99.90
2226;DHT22;1119;48.288;8.726;2022-11-15T03:09:09;9.30;99.90
2226;DHT22;1119;48.288;8.726;2022-11-15T03:12:03;9.30;99.90
2226;DHT22;1119;48.288;8.726;2022-11-15T03:14:54;9.40;99.90
2226;DHT22;1119;48.288;8.726;2022-11-15T03:17:49;9.40;99.90
2226;DHT22;1119;48.288;8.726;2022-11-15T03:20:39;9.40;99.90
2226;DHT22;1119;48.288;8.726;2022-11-15T03:23:29;9.40;99.90
2226;DHT22;1119;48.288;8.726;2022-11-15T03:26:16;9.50;99.90
2226;DHT22;1119;48.288;8.726;2022-11-15T03:29:07;9.40;99.90
2226;DHT22;1119;48.288;8.726;2022-11-15T03:31:58;9.40;99.90
2226;DHT22;1119;48.288;8.726;2022-11-15T03:34:50;9.40;99.90
2226;DHT22;1119;48.288;8.726;2022-11-15T03:37:41;9.40;99.90
2226;DHT22;1119;48.288;8.726;2022-11-15T03:40:36;9.40;99.90
2226;DHT22;1119;48.288;8.726;2022-11-15T03:43:29;9.50;99.90
2226;DHT22;1119;48.288;8.726;2022-11-15T03:46:23;9.40;99.90
2226;DHT22;1119;48.288;8.726;2022-11-15T03:49:14;9.50;99.90
2226;DHT22;1119;48.288;8.726;2022-11-15T03:52:02;9.50;99.90
2226;DHT22;1119;48.288;8.726;2022-11-15T03:54:50;9.50;99.90
2226;DHT22;1119;48.288;8.726;2022-11-15T03:57:39;9.60;99.90
2226;DHT22;1119;48.288;8.726;2022-11-15T04:00:25;9.60;99.90
2226;DHT22;1119;48.288;8.726;2022-11-15T04:03:11;9.60;99.90
2226;DHT22;1119;48.288;8.726;2022-11-15T04:05:57;9.60;99.90
2226;DHT22;1119;48.288;8.726;2022-11-15T04:08:43;9.60;99.90
2226;DHT22;1119;48.288;8.726;2022-11-15T04:11:29;9.60;99.90
2226;DHT22;1119;48.288;8.726;2022-11-15T04:14:16;9.60;99.90
2226;DHT22;1119;48.288;8.726;2022-11-15T04:17:02;9.60;99.90
2226;DHT22;1119;48.288;8.726;2022-11-15T04:19:48;9.60;99.90
2226;DHT22;1119;48.288;8.726;2022-11-15T04:22:53;9.60;99.90
2226;DHT22;1119;48.288;8.726;2022-11-15T04:26:00;9.70;99.90
2226;DHT22;1119;48.288;8.726;2022-11-15T04:28:47;9.60;99.90
2226;DHT22;1119;48.288;8.726;2022-11-15T04:32:07;9.60;99.90
2226;DHT22;1119;48.288;8.726;2022-11-15T04:34:52;9.60;99.90
2226;DHT22;1119;48.288;8.726;2022-11-15T04:37:39;9.70;99.90
2226;DHT22;1119;48.288;8.726;2022-11-15T04:40:24;9.70;99.90
2226;DHT22;1119;48.288;8.726;2022-11-15T04:43:10;9.70;99.90
2226;DHT22;1119;48.288;8.726;2022-11-15T04:45:56;9.70;99.90
2226;DHT22;1119;48.288;8.726;2022-11-15T04:48:43;9.70;99.90
2226;DHT22;1119;48.288;8.726;2022-11-15T04:51:29;9.80;99.90
2226;DHT22;1119;48.288;8.726;2022-11-15T04:54:15;9.80;99.90
2226;DHT22;1119;48.288;8.726;2022-11-15T04:57:01;9.80;99.90
2226;DHT22;1119;48.288;8.726;2022-11-15T04:59:47;9.90;99.90
2226;DHT22;1119;48.288;8.726;2022-11-15T05:02:32;9.90;99.90
2226;DHT22;1119;48.288;8.726;2022-11-15T05:05:34;10.00;99.90
2226;DHT22;1119;48.288;8.726;2022-11-15T05:08:19;10.00;99.90
2226;DHT22;1119;48.288;8.726;2022-11-15T05:11:05;10.10;99.90
2226;DHT22;1119;48.288;8.726;2022-11-15T05:13:51;9.90;99.90
2226;DHT22;1119;48.288;8.726;2022-11-15T05:16:37;10.00;99.90
2226;DHT22;1119;48.288;8.726;2022-11-15T05:19:23;10.00;99.90
2226;DHT22;1119;48.288;8.726;2022-11-15T05:22:10;10.00;99.90
2226;DHT22;1119;48.288;8.726;2022-11-15T05:24:56;10.00;99.90
2226;DHT22;1119;48.288;8.726;2022-11-15T05:27:42;10.00;99.90
2226;DHT22;1119;48.288;8.726;2022-11-15T05:30:28;10.00;99.90
2226;DHT22;1119;48.288;8.726;2022-11-15T05:33:15;10.00;99.90
2226;DHT22;1119;48.288;8.726;2022-11-15T05:36:05;10.00;99.90
2226;DHT22;1119;48.288;8.726;2022-11-15T05:38:56;10.00;99.90
2226;DHT22;1119;48.288;8.726;2022-11-15T05:41:44;10.00;99.90
2226;DHT22;1119;48.288;8.726;2022-11-15T05:44:33;10.00;99.90
2226;DHT22;1119;48.288;8.726;2022-11-15T05:47:22;10.00;99.90
2226;DHT22;1119;48.288;8.726;2022-11-15T05:50:12;10.10;99.90
2226;DHT22;1119;48.288;8.726;2022-11-15T05:52:58;10.00;99.90
2226;DHT22;1119;48.288;8.726;2022-11-15T05:55:47;10.00;99.90
2226;DHT22;1119;48.288;8.726;2022-11-15T05:58:33;10.00;99.90
2226;DHT22;1119;48.288;8.726;2022-11-15T06:01:19;10.00;99.90
2226;DHT22;1119;48.288;8.726;2022-11-15T06:04:04;10.00;99.90
2226;DHT22;1119;48.288;8.726;2022-11-15T06:06:50;10.00;99.90
2226;DHT22;1119;48.288;8.726;2022-11-15T06:09:36;10.00;99.90
2226;DHT22;1119;48.288;8.726;2022-11-15T06:12:23;10.00;99.90
2226;DHT22;1119;48.288;8.726;2022-11-15T06:15:10;10.00;99.90
2226;DHT22;1119;48.288;8.726;2022-11-15T06:17:56;10.00;99.90
2226;DHT22;1119;48.288;8.726;2022-11-15T06:20:42;10.00;99.90
2226;DHT22;1119;48.288;8.726;2022-11-15T06:23:31;10.10;99.90
2226;DHT22;1119;48.288;8.726;2022-11-15T06:26:18;10.10;99.90
2226;DHT22;1119;48.288;8.726;2022-11-15T06:29:05;10.10;99.90
2226;DHT22;1119;48.288;8.726;2022-11-15T06:31:51;10.10;99.90
2226;DHT22;1119;48.288;8.726;2022-11-15T06:34:37;10.20;99.90
2226;DHT22;1119;48.288;8.726;2022-11-15T06:37:22;10.20;99.90
2226;DHT22;1119;48.288;8.726;2022-11-15T06:40:10;10.30;99.90
2226;DHT22;1119;48.288;8.726;2022-11-15T06:42:58;10.30;99.90
2226;DHT22;1119;48.288;8.726;2022-11-15T06:45:45;10.40;99.90
2226;DHT22;1119;48.288;8.726;2022-11-15T06:48:32;10.50;99.90
2226;DHT22;1119;48.288;8.726;2022-11-15T06:51:18;10.60;99.90
2226;DHT22;1119;48.288;8.726;2022-11-15T06:54:04;10.70;99.90
2226;DHT22;1119;48.288;8.726;2022-11-15T06:56:50;10.80;99.90
2226;DHT22;1119;48.288;8.726;2022-11-15T06:59:36;10.80;99.90
2226;DHT22;1119;48.288;8.726;2022-11-15T07:02:23;10.80;99.90
2226;DHT22;1119;48.288;8.726;2022-11-15T07:05:10;10.90;99.90
2226;DHT22;1119;48.288;8.726;2022-11-15T07:07:57;10.90;99.90
2226;DHT22;1119;48.288;8.726;2022-11-15T07:10:43;11.00;99.90
2226;DHT22;1119;48.288;8.726;2022-11-15T07:13:30;11.00;99.90
2226;DHT22;1119;48.288;8.726;2022-11-15T07:16:18;11.10;99.90
2226;DHT22;1119;48.288;8.726;2022-11-15T07:19:05;11.20;99.90
2226;DHT22;1119;48.288;8.726;2022-11-15T07:21:51;11.20;99.90
2226;DHT22;1119;48.288;8.726;2022-11-15T07:24:36;11.20;99.90
2226;DHT22;1119;48.288;8.726;2022-11-15T07:27:22;11.20;99.90
2226;DHT22;1119;48.288;8.726;2022-11-15T07:30:09;11.20;99.90
2226;DHT22;1119;48.288;8.726;2022-11-15T07:32:56;11.20;99.90
2226;DHT22;1119;48.288;8.726;2022-11-15T07:35:43;11.30;99.90
2226;DHT22;1119;48.288;8.726;2022-11-15T07:38:31;11.30;99.90
2226;DHT22;1119;48.288;8.726;2022-11-15T07:41:18;11.30;99.90
2226;DHT22;1119;48.288;8.726;2022-11-15T07:44:04;11.30;99.90
2226;DHT22;1119;48.288;8.726;2022-11-15T07:46:50;11.30;99.90
2226;DHT22;1119;48.288;8.726;2022-11-15T07:49:36;11.30;99.90
2226;DHT22;1119;48.288;8.726;2022-11-15T07:52:23;11.30;99.90
2226;DHT22;1119;48.288;8.726;2022-11-15T07:55:09;11.20;99.90
2226;DHT22;1119;48.288;8.726;2022-11-15T07:58:00;11.30;99.90
2226;DHT22;1119;48.288;8.726;2022-11-15T08:00:47;11.30;99.90
2226;DHT22;1119;48.288;8.726;2022-11-15T08:03:33;11.30;99.90
2226;DHT22;1119;48.288;8.726;2022-11-15T08:06:20;11.20;99.90
2226;DHT22;1119;48.288;8.726;2022-11-15T08:09:07;11.10;99.90
2226;DHT22;1119;48.288;8.726;2022-11-15T08:11:53;11.10;99.90
2226;DHT22;1119;48.288;8.726;2022-11-15T08:14:39;11.00;99.90
2226;DHT22;1119;48.288;8.726;2022-11-15T08:17:25;11.00;99.90
2226;DHT22;1119;48.288;8.726;2022-11-15T08:20:11;11.00;99.90
2226;DHT22;1119;48.288;8.726;2022-11-15T08:22:58;11.10;99.90
2226;DHT22;1119;48.288;8.726;2022-11-15T08:25:46;11.10;99.90
2226;DHT22;1119;48.288;8.726;2022-11-15T08:28:32;11.10;99.90
2226;DHT22;1119;48.288;8.726;2022-11-15T08:31:18;11.10;99.90
2226;DHT22;1119;48.288;8.726;2022-11-15T08:34:05;11.20;99.90
2226;DHT22;1119;48.288;8.726;2022-11-15T08:36:51;11.20;99.90
2226;DHT22;1119;48.288;8.726;2022-11-15T08:39:37;11.20;99.90
2226;DHT22;1119;48.288;8.726;2022-11-15T08:42:25;11.20;99.90
2226;DHT22;1119;48.288;8.726;2022-11-15T08:45:12;11.20;99.90
2226;DHT22;1119;48.288;8.726;2022-11-15T08:48:02;11.20;99.90
2226;DHT22;1119;48.288;8.726;2022-11-15T08:50:48;11.30;99.90
2226;DHT22;1119;48.288;8.726;2022-11-15T08:53:34;11.30;99.90
2226;DHT22;1119;48.288;8.726;2022-11-15T08:56:20;11.30;99.90
2226;DHT22;1119;48.288;8.726;2022-11-15T08:59:08;11.40;99.90
2226;DHT22;1119;48.288;8.726;2022-11-15T09:01:53;11.40;99.90
2226;DHT22;1119;48.288;8.726;2022-11-15T09:04:40;11.50;99.90
2226;DHT22;1119;48.288;8.726;2022-11-15T09:07:27;11.50;99.90
2226;DHT22;1119;48.288;8.726;2022-11-15T09:10:14;11.60;99.90
2226;DHT22;1119;48.288;8.726;2022-11-15T09:13:00;11.70;99.90
2226;DHT22;1119;48.288;8.726;2022-11-15T09:15:48;11.80;99.90
2226;DHT22;1119;48.288;8.726;2022-11-15T09:18:34;11.80;99.90
2226;DHT22;1119;48.288;8.726;2022-11-15T09:21:20;11.90;99.90
2226;DHT22;1119;48.288;8.726;2022-11-15T09:24:06;11.80;99.90
2226;DHT22;1119;48.288;8.726;2022-11-15T09:26:52;11.90;99.90
2226;DHT22;1119;48.288;8.726;2022-11-15T09:29:38;11.90;99.90
2226;DHT22;1119;48.288;8.726;2022-11-15T09:32:28;11.90;99.90
2226;DHT22;1119;48.288;8.726;2022-11-15T09:35:14;11.90;99.90
2226;DHT22;1119;48.288;8.726;2022-11-15T09:38:00;12.00;99.90
2226;DHT22;1119;48.288;8.726;2022-11-15T09:40:50;12.00;99.90
2226;DHT22;1119;48.288;8.726;2022-11-15T09:43:42;12.10;99.90
2226;DHT22;1119;48.288;8.726;2022-11-15T09:46:40;12.10;99.90
2226;DHT22;1119;48.288;8.726;2022-11-15T09:49:32;12.30;99.90
2226;DHT22;1119;48.288;8.726;2022-11-15T09:52:16;12.20;99.90
2226;DHT22;1119;48.288;8.726;2022-11-15T09:54:48;12.30;99.90
2226;DHT22;1119;48.288;8.726;2022-11-15T09:57:19;12.30;99.90
2226;DHT22;1119;48.288;8.726;2022-11-15T09:59:58;12.10;99.90
2226;DHT22;1119;48.288;8.726;2022-11-15T10:05:40;12.40;99.90
2226;DHT22;1119;48.288;8.726;2022-11-15T10:08:22;12.40;99.90
2226;DHT22;1119;48.288;8.726;2022-11-15T10:10:57;12.40;99.90
2226;DHT22;1119;48.288;8.726;2022-11-15T10:13:26;12.40;99.90
2226;DHT22;1119;48.288;8.726;2022-11-15T10:16:04;12.50;99.90
2226;DHT22;1119;48.288;8.726;2022-11-15T10:18:46;12.40;99.90
2226;DHT22;1119;48.288;8.726;2022-11-15T10:21:25;12.40;99.90
2226;DHT22;1119;48.288;8.726;2022-11-15T10:23:56;12.40;99.90
2226;DHT22;1119;48.288;8.726;2022-11-15T10:26:25;12.30;99.90
2226;DHT22;1119;48.288;8.726;2022-11-15T10:28:52;12.30;99.90
2226;DHT22;1119;48.288;8.726;2022-11-15T10:31:24;12.30;99.90
2226;DHT22;1119;48.288;8.726;2022-11-15T10:34:05;12.20;99.90
2226;DHT22;1119;48.288;8.726;2022-11-15T10:36:44;12.30;99.90
2226;DHT22;1119;48.288;8.726;2022-11-15T10:39:12;12.30;99.90
2226;DHT22;1119;48.288;8.726;2022-11-15T10:41:41;12.20;99.90
2226;DHT22;1119;48.288;8.726;2022-11-15T10:44:21;12.30;99.90
2226;DHT22;1119;48.288;8.726;2022-11-15T10:47:24;12.30;99.90
2226;DHT22;1119;48.288;8.726;2022-11-15T10:49:59;12.30;99.90
2226;DHT22;1119;48.288;8.726;2022-11-15T10:52:30;12.30;99.90
2226;DHT22;1119;48.288;8.726;2022-11-15T10:55:03;12.30;99.90
2226;DHT22;1119;48.288;8.726;2022-11-15T10:57:39;12.40;99.90
2226;DHT22;1119;48.288;8.726;2022-11-15T11:00:27;12.20;99.90
2226;DHT22;1119;48.288;8.726;2022-11-15T11:03:00;12.50;99.90
2226;DHT22;1119;48.288;8.726;2022-11-15T11:05:30;12.50;99.90
2226;DHT22;1119;48.288;8.726;2022-11-15T11:08:03;12.50;99.90
2226;DHT22;1119;48.288;8.726;2022-11-15T11:10:31;12.50;99.90
2226;DHT22;1119;48.288;8.726;2022-11-15T11:13:13;12.50;99.90
2226;DHT22;1119;48.288;8.726;2022-11-15T11:15:44;12.50;99.90
2226;DHT22;1119;48.288;8.726;2022-11-15T11:18:19;12.50;99.90
2226;DHT22;1119;48.288;8.726;2022-11-15T11:20:57;12.40;99.90
2226;DHT22;1119;48.288;8.726;2022-11-15T11:23:38;12.50;99.90
2226;DHT22;1119;48.288;8.726;2022-11-15T11:26:34;12.50;99.90
2226;DHT22;1119;48.288;8.726;2022-11-15T11:29:25;12.60;99.90
2226;DHT22;1119;48.288;8.726;2022-11-15T11:32:02;12.80;99.90
2226;DHT22;1119;48.288;8.726;2022-11-15T11:34:46;12.90;99.90
2226;DHT22;1119;48.288;8.726;2022-11-15T11:37:26;13.00;99.90
2226;DHT22;1119;48.288;8.726;2022-11-15T11:40:16;13.10;99.90
2226;DHT22;1119;48.288;8.726;2022-11-15T11:42:55;13.20;99.90
2226;DHT22;1119;48.288;8.726;2022-11-15T11:45:37;13.20;99.90
2226;DHT22;1119;48.288;8.726;2022-11-15T11:48:28;13.30;99.90
2226;DHT22;1119;48.288;8.726;2022-11-15T11:51:09;13.30;99.90
2226;DHT22;1119;48.288;8.726;2022-11-15T11:53:44;13.30;99.90
2226;DHT22;1119;48.288;8.726;2022-11-15T11:56:23;13.20;99.90
2226;DHT22;1119;48.288;8.726;2022-11-15T11:58:57;13.40;99.90
2226;DHT22;1119;48.288;8.726;2022-11-15T12:01:32;13.50;99.90
2226;DHT22;1119;48.288;8.726;2022-11-15T12:04:10;13.50;99.90
2226;DHT22;1119;48.288;8.726;2022-11-15T12:06:44;13.50;99.90
2226;DHT22;1119;48.288;8.726;2022-11-15T12:09:17;13.40;99.90
2226;DHT22;1119;48.288;8.726;2022-11-15T12:11:56;13.40;99.90
2226;DHT22;1119;48.288;8.726;2022-11-15T12:14:31;13.30;99.90
2226;DHT22;1119;48.288;8.726;2022-11-15T12:17:00;13.30;99.90
2226;DHT22;1119;48.288;8.726;2022-11-15T12:19:29;13.30;99.90
2226;DHT22;1119;48.288;8.726;2022-11-15T12:22:02;13.30;99.90
2226;DHT22;1119;48.288;8.726;2022-11-15T12:24:39;13.20;99.90
2226;DHT22;1119;48.288;8.726;2022-11-15T12:27:16;13.20;99.90
2226;DHT22;1119;48.288;8.726;2022-11-15T12:29:47;13.10;99.90
2226;DHT22;1119;48.288;8.726;2022-11-15T12:32:25;13.10;99.90
2226;DHT22;1119;48.288;8.726;2022-11-15T12:34:54;13.00;99.90
2226;DHT22;1119;48.288;8.726;2022-11-15T12:40:25;12.90;99.90
2226;DHT22;1119;48.288;8.726;2022-11-15T12:43:02;13.10;99.90
2226;DHT22;1119;48.288;8.726;2022-11-15T12:46:03;13.00;99.90
2226;DHT22;1119;48.288;8.726;2022-11-15T12:48:50;13.00;99.90
2226;DHT22;1119;48.288;8.726;2022-11-15T12:51:20;13.00;99.90
2226;DHT22;1119;48.288;8.726;2022-11-15T12:53:49;13.10;99.90
2226;DHT22;1119;48.288;8.726;2022-11-15T12:56:23;13.10;99.90
2226;DHT22;1119;48.288;8.726;2022-11-15T12:58:55;13.10;99.90
2226;DHT22;1119;48.288;8.726;2022-11-15T13:01:56;13.10;99.90
2226;DHT22;1119;48.288;8.726;2022-11-15T13:04:27;13.10;99.90
2226;DHT22;1119;48.288;8.726;2022-11-15T13:06:58;13.10;99.90
2226;DHT22;1119;48.288;8.726;2022-11-15T13:09:53;13.00;99.90
2226;DHT22;1119;48.288;8.726;2022-11-15T13:12:53;13.10;99.90
2226;DHT22;1119;48.288;8.726;2022-11-15T13:15:39;13.10;99.90
2226;DHT22;1119;48.288;8.726;2022-11-15T13:18:33;13.10;99.90
2226;DHT22;1119;48.288;8.726;2022-11-15T13:21:19;13.20;99.90
2226;DHT22;1119;48.288;8.726;2022-11-15T13:24:12;13.20;99.90
2226;DHT22;1119;48.288;8.726;2022-11-15T13:26:40;13.30;99.90
2226;DHT22;1119;48.288;8.726;2022-11-15T13:29:25;13.30;99.90
2226;DHT22;1119;48.288;8.726;2022-11-15T13:31:54;13.30;99.90
2226;DHT22;1119;48.288;8.726;2022-11-15T13:34:28;13.30;99.90
2226;DHT22;1119;48.288;8.726;2022-11-15T13:36:58;13.30;99.90
2226;DHT22;1119;48.288;8.726;2022-11-15T13:39:29;13.30;99.90
2226;DHT22;1119;48.288;8.726;2022-11-15T13:41:58;13.40;99.90
2226;DHT22;1119;48.288;8.726;2022-11-15T13:44:27;13.40;99.90
2226;DHT22;1119;48.288;8.726;2022-11-15T13:47:04;13.50;99.90
2226;DHT22;1119;48.288;8.726;2022-11-15T13:49:33;13.50;99.90
2226;DHT22;1119;48.288;8.726;2022-11-15T13:52:04;13.50;99.90
2226;DHT22;1119;48.288;8.726;2022-11-15T13:54:35;13.40;99.90
2226;DHT22;1119;48.288;8.726;2022-11-15T13:57:10;13.50;99.90
2226;DHT22;1119;48.288;8.726;2022-11-15T13:59:45;13.60;99.90
2226;DHT22;1119;48.288;8.726;2022-11-15T14:02:17;13.30;99.90
2226;DHT22;1119;48.288;8.726;2022-11-15T14:04:49;13.20;99.90
2226;DHT22;1119;48.288;8.726;2022-11-15T14:07:30;13.40;99.90
2226;DHT22;1119;48.288;8.726;2022-11-15T14:09:58;13.60;99.90
2226;DHT22;1119;48.288;8.726;2022-11-15T14:12:50;13.40;99.90
2226;DHT22;1119;48.288;8.726;2022-11-15T14:15:26;13.40;99.90
2226;DHT22;1119;48.288;8.726;2022-11-15T14:17:57;13.40;99.90
2226;DHT22;1119;48.288;8.726;2022-11-15T14:20:31;13.40;99.90
2226;DHT22;1119;48.288;8.726;2022-11-15T14:23:00;13.40;99.90
2226;DHT22;1119;48.288;8.726;2022-11-15T14:25:29;13.30;99.90
2226;DHT22;1119;48.288;8.726;2022-11-15T14:28:28;13.20;99.90
2226;DHT22;1119;48.288;8.726;2022-11-15T14:30:59;13.20;99.90
2226;DHT22;1119;48.288;8.726;2022-11-15T14:33:30;13.10;99.90
2226;DHT22;1119;48.288;8.726;2022-11-15T14:36:04;13.20;99.90
2226;DHT22;1119;48.288;8.726;2022-11-15T14:38:33;13.10;99.90
2226;DHT22;1119;48.288;8.726;2022-11-15T14:41:00;13.00;99.90
2226;DHT22;1119;48.288;8.726;2022-11-15T14:43:27;12.90;99.90
2226;DHT22;1119;48.288;8.726;2022-11-15T14:45:55;12.90;99.90
2226;DHT22;1119;48.288;8.726;2022-11-15T14:48:22;12.80;99.90
2226;DHT22;1119;48.288;8.726;2022-11-15T14:50:51;12.90;99.90
2226;DHT22;1119;48.288;8.726;2022-11-15T14:53:18;12.50;99.90
2226;DHT22;1119;48.288;8.726;2022-11-15T14:55:47;12.80;99.90
2226;DHT22;1119;48.288;8.726;2022-11-15T14:58:15;12.70;99.90
2226;DHT22;1119;48.288;8.726;2022-11-15T15:00:43;12.70;99.90
2226;DHT22;1119;48.288;8.726;2022-11-15T15:03:10;12.50;99.90
2226;DHT22;1119;48.288;8.726;2022-11-15T15:05:39;12.40;99.90
2226;DHT22;1119;48.288;8.726;2022-11-15T15:08:09;12.60;99.90
2226;DHT22;1119;48.288;8.726;2022-11-15T15:10:39;12.50;99.90
2226;DHT22;1119;48.288;8.726;2022-11-15T15:13:16;12.30;99.90
2226;DHT22;1119;48.288;8.726;2022-11-15T15:15:45;12.50;99.90
2226;DHT22;1119;48.288;8.726;2022-11-15T15:18:13;12.30;99.90
2226;DHT22;1119;48.288;8.726;2022-11-15T15:20:42;12.30;99.90
2226;DHT22;1119;48.288;8.726;2022-11-15T15:23:16;12.20;99.90
2226;DHT22;1119;48.288;8.726;2022-11-15T15:25:45;12.20;99.90
2226;DHT22;1119;48.288;8.726;2022-11-15T15:28:14;12.20;99.90
2226;DHT22;1119;48.288;8.726;2022-11-15T15:30:42;12.10;99.90
2226;DHT22;1119;48.288;8.726;2022-11-15T15:33:09;12.10;99.90
2226;DHT22;1119;48.288;8.726;2022-11-15T15:35:37;11.90;99.90
2226;DHT22;1119;48.288;8.726;2022-11-15T15:38:04;12.10;99.90
2226;DHT22;1119;48.288;8.726;2022-11-15T15:40:33;12.00;99.90
2226;DHT22;1119;48.288;8.726;2022-11-15T15:43:00;12.00;99.90
2226;DHT22;1119;48.288;8.726;2022-11-15T15:45:28;11.90;99.90
2226;DHT22;1119;48.288;8.726;2022-11-15T15:47:55;11.90;99.90
2226;DHT22;1119;48.288;8.726;2022-11-15T15:50:24;11.90;99.90
2226;DHT22;1119;48.288;8.726;2022-11-15T15:52:54;11.90;99.90
2226;DHT22;1119;48.288;8.726;2022-11-15T15:55:22;11.90;99.90
2226;DHT22;1119;48.288;8.726;2022-11-15T15:57:52;12.00;99.90
2226;DHT22;1119;48.288;8.726;2022-11-15T16:00:21;11.90;99.90
2226;DHT22;1119;48.288;8.726;2022-11-15T16:02:50;12.00;99.90
2226;DHT22;1119;48.288;8.726;2022-11-15T16:05:18;12.00;99.90
2226;DHT22;1119;48.288;8.726;2022-11-15T16:07:45;12.10;99.90
2226;DHT22;1119;48.288;8.726;2022-11-15T16:10:18;12.10;99.90
2226;DHT22;1119;48.288;8.726;2022-11-15T16:12:48;12.10;99.90
2226;DHT22;1119;48.288;8.726;2022-11-15T16:15:17;12.00;99.90
2226;DHT22;1119;48.288;8.726;2022-11-15T16:17:48;12.00;99.90
2226;DHT22;1119;48.288;8.726;2022-11-15T16:20:32;11.80;99.90
2226;DHT22;1119;48.288;8.726;2022-11-15T16:23:03;11.90;99.90
2226;DHT22;1119;48.288;8.726;2022-11-15T16:25:34;11.90;99.90
2226;DHT22;1119;48.288;8.726;2022-11-15T16:28:04;12.00;99.90
2226;DHT22;1119;48.288;8.726;2022-11-15T16:30:36;11.80;99.90
2226;DHT22;1119;48.288;8.726;2022-11-15T16:33:03;12.00;99.90
2226;DHT22;1119;48.288;8.726;2022-11-15T16:35:30;11.90;99.90
2226;DHT22;1119;48.288;8.726;2022-11-15T16:37:58;12.70;99.90
2226;DHT22;1119;48.288;8.726;2022-11-15T16:40:28;12.00;99.90
2226;DHT22;1119;48.288;8.726;2022-11-15T16:42:56;12.00;99.90
2226;DHT22;1119;48.288;8.726;2022-11-15T16:45:25;11.90;99.90
2226;DHT22;1119;48.288;8.726;2022-11-15T16:47:55;12.00;99.90
2226;DHT22;1119;48.288;8.726;2022-11-15T16:50:25;12.00;99.90
2226;DHT22;1119;48.288;8.726;2022-11-15T16:52:54;12.00;99.90
2226;DHT22;1119;48.288;8.726;2022-11-15T16:55:24;12.00;99.90
2226;DHT22;1119;48.288;8.726;2022-11-15T16:57:53;11.90;99.90
2226;DHT22;1119;48.288;8.726;2022-11-15T17:00:23;12.00;99.90
2226;DHT22;1119;48.288;8.726;2022-11-15T17:02:52;12.00;99.90
2226;DHT22;1119;48.288;8.726;2022-11-15T17:05:24;11.80;99.90
2226;DHT22;1119;48.288;8.726;2022-11-15T17:07:52;11.80;99.90
2226;DHT22;1119;48.288;8.726;2022-11-15T17:10:20;12.00;99.90
2226;DHT22;1119;48.288;8.726;2022-11-15T17:12:49;11.70;99.90
2226;DHT22;1119;48.288;8.726;2022-11-15T17:15:16;11.60;99.90
2226;DHT22;1119;48.288;8.726;2022-11-15T17:17:44;11.50;99.90
2226;DHT22;1119;48.288;8.726;2022-11-15T17:20:18;11.50;99.90
2226;DHT22;1119;48.288;8.726;2022-11-15T17:22:48;11.50;99.90
2226;DHT22;1119;48.288;8.726;2022-11-15T17:25:15;11.50;99.90
2226;DHT22;1119;48.288;8.726;2022-11-15T17:27:43;11.50;99.90
2226;DHT22;1119;48.288;8.726;2022-11-15T17:30:12;11.40;99.90
2226;DHT22;1119;48.288;8.726;2022-11-15T17:32:41;11.60;99.90
2226;DHT22;1119;48.288;8.726;2022-11-15T17:35:10;11.60;99.90
2226;DHT22;1119;48.288;8.726;2022-11-15T17:37:38;11.70;99.90
2226;DHT22;1119;48.288;8.726;2022-11-15T17:40:08;11.70;99.90
2226;DHT22;1119;48.288;8.726;2022-11-15T17:42:36;11.70;99.90
2226;DHT22;1119;48.288;8.726;2022-11-15T17:45:07;11.70;99.90
2226;DHT22;1119;48.288;8.726;2022-11-15T17:47:35;11.70;99.90
2226;DHT22;1119;48.288;8.726;2022-11-15T17:50:03;11.70;99.90